sensor_id;sensor_type;location;lat;lon;timestamp;temperature;humidity
27306;DHT22;14792;50.886;6.468;2023-02-28T00:02:03;-0.10;99.90
27306;DHT22;14792;50.886;6.468;2023-02-28T00:05:05;-0.10;99.90
27306;DHT22;14792;50.886;6.468;2023-02-28T00:08:06;-0.10;99.90
27306;DHT22;14792;50.886;6.468;2023-02-28T00:11:09;-0.20;99.90
27306;DHT22;14792;50.886;6.468;2023-02-28T00:14:09;-0.20;99.90
27306;DHT22;14792;50.886;6.468;2023-02-28T00:17:11;-0.10;99.90
27306;DHT22;14792;50.886;6.468;2023-02-28T00:20:12;-0.20;99.90
27306;DHT22;14792;50.886;6.468;2023-02-28T00:23:14;-0.20;99.90
27306;DHT22;14792;50.886;6.468;2023-02-28T00:26:16;-0.30;99.90
27306;DHT22;14792;50.886;6.468;2023-02-28T00:29:17;-0.30;99.90
27306;DHT22;14792;50.886;6.468;2023-02-28T00:32:19;-0.30;99.90
27306;DHT22;14792;50.886;6.468;2023-02-28T00:35:20;-0.30;99.90
27306;DHT22;14792;50.886;6.468;2023-02-28T00:38:23;-0.30;99.90
27306;DHT22;14792;50.886;6.468;2023-02-28T00:41:27;-0.20;99.90
27306;DHT22;14792;50.886;6.468;2023-02-28T00:44:28;-0.30;99.90
27306;DHT22;14792;50.886;6.468;2023-02-28T00:47:30;-0.30;99.90
27306;DHT22;14792;50.886;6.468;2023-02-28T00:50:31;-0.30;99.90
27306;DHT22;14792;50.886;6.468;2023-02-28T00:53:33;-0.30;99.90
27306;DHT22;14792;50.886;6.468;2023-02-28T00:56:34;-0.30;99.90
27306;DHT22;14792;50.886;6.468;2023-02-28T00:59:36;-0.30;99.90
27306;DHT22;14792;50.886;6.468;2023-02-28T01:02:38;-0.30;99.90
27306;DHT22;14792;50.886;6.468;2023-02-28T01:05:39;-0.30;99.90
27306;DHT22;14792;50.886;6.468;2023-02-28T01:08:41;-0.30;99.90
27306;DHT22;14792;50.886;6.468;2023-02-28T01:11:42;-0.30;99.90
27306;DHT22;14792;50.886;6.468;2023-02-28T01:14:45;-0.40;99.90
27306;DHT22;14792;50.886;6.468;2023-02-28T01:17:47;-0.40;99.90
27306;DHT22;14792;50.886;6.468;2023-02-28T01:20:48;-0.50;99.90
27306;DHT22;14792;50.886;6.468;2023-02-28T01:23:50;-0.50;99.90
27306;DHT22;14792;50.886;6.468;2023-02-28T01:26:51;-0.50;99.90
27306;DHT22;14792;50.886;6.468;2023-02-28T01:29:53;-0.60;99.90
27306;DHT22;14792;50.886;6.468;2023-02-28T01:32:55;-0.60;99.90
27306;DHT22;14792;50.886;6.468;2023-02-28T01:36:05;-0.70;99.90
27306;DHT22;14792;50.886;6.468;2023-02-28T01:39:04;-0.70;99.90
27306;DHT22;14792;50.886;6.468;2023-02-28T01:42:05;-0.80;99.90
27306;DHT22;14792;50.886;6.468;2023-02-28T01:45:23;-0.70;99.90
27306;DHT22;14792;50.886;6.468;2023-02-28T01:48:30;-0.70;99.90
27306;DHT22;14792;50.886;6.468;2023-02-28T01:51:37;-0.80;99.90
27306;DHT22;14792;50.886;6.468;2023-02-28T01:54:35;-0.90;99.90
27306;DHT22;14792;50.886;6.468;2023-02-28T01:57:38;-0.90;99.90
27306;DHT22;14792;50.886;6.468;2023-02-28T02:00:38;-1.00;99.90
27306;DHT22;14792;50.886;6.468;2023-02-28T02:03:40;-1.00;99.90
27306;DHT22;14792;50.886;6.468;2023-02-28T02:06:43;-1.10;99.90
27306;DHT22;14792;50.886;6.468;2023-02-28T02:09:43;-1.10;99.90
27306;DHT22;14792;50.886;6.468;2023-02-28T02:23:00;-1.30;99.90
27306;DHT22;14792;50.886;6.468;2023-02-28T02:32:44;-1.40;99.90
27306;DHT22;14792;50.886;6.468;2023-02-28T02:35:43;-1.40;99.90
27306;DHT22;14792;50.886;6.468;2023-02-28T02:38:52;-1.40;99.90
27306;DHT22;14792;50.886;6.468;2023-02-28T02:41:52;-1.50;99.90
27306;DHT22;14792;50.886;6.468;2023-02-28T02:45:01;-1.50;99.90
27306;DHT22;14792;50.886;6.468;2023-02-28T02:48:01;-1.50;99.90
27306;DHT22;14792;50.886;6.468;2023-02-28T02:51:04;-1.60;99.90
27306;DHT22;14792;50.886;6.468;2023-02-28T02:54:11;-1.70;99.90
27306;DHT22;14792;50.886;6.468;2023-02-28T02:57:17;-1.70;99.90
27306;DHT22;14792;50.886;6.468;2023-02-28T03:00:13;-1.70;99.90
27306;DHT22;14792;50.886;6.468;2023-02-28T03:03:14;-1.70;99.90
27306;DHT22;14792;50.886;6.468;2023-02-28T03:06:17;-1.80;99.90
27306;DHT22;14792;50.886;6.468;2023-02-28T03:09:19;-1.70;99.90
27306;DHT22;14792;50.886;6.468;2023-02-28T03:12:21;-1.80;99.90
27306;DHT22;14792;50.886;6.468;2023-02-28T03:15:32;-1.90;99.90
27306;DHT22;14792;50.886;6.468;2023-02-28T03:22:09;-1.90;99.90
27306;DHT22;14792;50.886;6.468;2023-02-28T03:28:37;-1.90;99.90
27306;DHT22;14792;50.886;6.468;2023-02-28T03:31:39;-1.90;99.90
27306;DHT22;14792;50.886;6.468;2023-02-28T03:34:47;-1.80;99.90
27306;DHT22;14792;50.886;6.468;2023-02-28T03:37:48;-1.80;99.90
27306;DHT22;14792;50.886;6.468;2023-02-28T03:40:50;-1.80;99.90
27306;DHT22;14792;50.886;6.468;2023-02-28T03:43:55;-1.70;99.90
27306;DHT22;14792;50.886;6.468;2023-02-28T03:47:04;-1.80;99.90
27306;DHT22;14792;50.886;6.468;2023-02-28T03:50:10;-1.70;99.90
27306;DHT22;14792;50.886;6.468;2023-02-28T03:53:23;-1.80;99.90
27306;DHT22;14792;50.886;6.468;2023-02-28T03:56:37;-1.80;99.90
27306;DHT22;14792;50.886;6.468;2023-02-28T03:59:44;-1.80;99.90
27306;DHT22;14792;50.886;6.468;2023-02-28T04:02:44;-1.90;99.90
27306;DHT22;14792;50.886;6.468;2023-02-28T04:05:52;-2.00;99.90
27306;DHT22;14792;50.886;6.468;2023-02-28T04:08:52;-2.00;99.90
27306;DHT22;14792;50.886;6.468;2023-02-28T04:11:54;-2.10;99.90
27306;DHT22;14792;50.886;6.468;2023-02-28T04:14:55;-2.10;99.90
27306;DHT22;14792;50.886;6.468;2023-02-28T04:17:57;-2.20;99.90
27306;DHT22;14792;50.886;6.468;2023-02-28T04:20:59;-2.20;99.90
27306;DHT22;14792;50.886;6.468;2023-02-28T04:24:00;-2.20;99.90
27306;DHT22;14792;50.886;6.468;2023-02-28T04:27:02;-2.10;99.90
27306;DHT22;14792;50.886;6.468;2023-02-28T04:30:04;-2.10;99.90
27306;DHT22;14792;50.886;6.468;2023-02-28T04:33:05;-2.20;99.90
27306;DHT22;14792;50.886;6.468;2023-02-28T04:36:07;-2.20;99.90
27306;DHT22;14792;50.886;6.468;2023-02-28T04:39:08;-2.20;99.90
27306;DHT22;14792;50.886;6.468;2023-02-28T04:42:10;-2.20;99.90
27306;DHT22;14792;50.886;6.468;2023-02-28T04:45:11;-2.20;99.90
27306;DHT22;14792;50.886;6.468;2023-02-28T04:48:13;-2.10;99.90
27306;DHT22;14792;50.886;6.468;2023-02-28T04:51:16;-2.10;99.90
27306;DHT22;14792;50.886;6.468;2023-02-28T04:54:16;-2.10;99.90
27306;DHT22;14792;50.886;6.468;2023-02-28T04:57:18;-2.00;99.90
27306;DHT22;14792;50.886;6.468;2023-02-28T05:00:19;-2.00;99.90
27306;DHT22;14792;50.886;6.468;2023-02-28T05:03:21;-1.90;99.90
27306;DHT22;14792;50.886;6.468;2023-02-28T05:06:23;-1.90;99.90
27306;DHT22;14792;50.886;6.468;2023-02-28T05:09:24;-1.80;99.90
27306;DHT22;14792;50.886;6.468;2023-02-28T05:12:26;-1.70;99.90
27306;DHT22;14792;50.886;6.468;2023-02-28T05:15:27;-1.70;99.90
27306;DHT22;14792;50.886;6.468;2023-02-28T05:18:29;-1.70;99.90
27306;DHT22;14792;50.886;6.468;2023-02-28T05:21:35;-1.60;99.90
27306;DHT22;14792;50.886;6.468;2023-02-28T05:24:35;-1.70;99.90
27306;DHT22;14792;50.886;6.468;2023-02-28T05:27:36;-1.70;99.90
27306;DHT22;14792;50.886;6.468;2023-02-28T05:30:38;-1.70;99.90
27306;DHT22;14792;50.886;6.468;2023-02-28T05:33:40;-1.80;99.90
27306;DHT22;14792;50.886;6.468;2023-02-28T05:36:41;-1.60;99.90
27306;DHT22;14792;50.886;6.468;2023-02-28T05:39:43;-1.60;99.90
27306;DHT22;14792;50.886;6.468;2023-02-28T05:42:44;-1.60;99.90
27306;DHT22;14792;50.886;6.468;2023-02-28T05:45:46;-1.60;99.90
27306;DHT22;14792;50.886;6.468;2023-02-28T05:48:48;-1.60;99.90
27306;DHT22;14792;50.886;6.468;2023-02-28T05:51:49;-1.60;99.90
27306;DHT22;14792;50.886;6.468;2023-02-28T05:54:51;-1.60;99.90
27306;DHT22;14792;50.886;6.468;2023-02-28T05:57:52;-1.60;99.90
27306;DHT22;14792;50.886;6.468;2023-02-28T06:00:54;-1.70;99.90
27306;DHT22;14792;50.886;6.468;2023-02-28T06:03:55;-1.60;99.90
27306;DHT22;14792;50.886;6.468;2023-02-28T06:06:57;-1.60;99.90
27306;DHT22;14792;50.886;6.468;2023-02-28T06:09:59;-1.70;99.90
27306;DHT22;14792;50.886;6.468;2023-02-28T06:13:00;-1.70;99.90
27306;DHT22;14792;50.886;6.468;2023-02-28T06:16:02;-1.80;99.90
27306;DHT22;14792;50.886;6.468;2023-02-28T06:19:03;-1.80;99.90
27306;DHT22;14792;50.886;6.468;2023-02-28T06:22:05;-1.70;99.90
27306;DHT22;14792;50.886;6.468;2023-02-28T06:25:07;-1.80;99.90
27306;DHT22;14792;50.886;6.468;2023-02-28T06:28:08;-1.80;99.90
27306;DHT22;14792;50.886;6.468;2023-02-28T06:31:11;-1.80;99.90
27306;DHT22;14792;50.886;6.468;2023-02-28T06:34:11;-1.80;99.90
27306;DHT22;14792;50.886;6.468;2023-02-28T06:37:13;-1.80;99.90
27306;DHT22;14792;50.886;6.468;2023-02-28T06:40:15;-1.90;99.90
27306;DHT22;14792;50.886;6.468;2023-02-28T06:43:16;-1.90;99.90
27306;DHT22;14792;50.886;6.468;2023-02-28T06:46:18;-1.90;99.90
27306;DHT22;14792;50.886;6.468;2023-02-28T06:49:19;-1.90;99.90
27306;DHT22;14792;50.886;6.468;2023-02-28T06:52:21;-1.90;99.90
27306;DHT22;14792;50.886;6.468;2023-02-28T06:55:22;-1.90;99.90
27306;DHT22;14792;50.886;6.468;2023-02-28T06:58:24;-1.80;99.90
27306;DHT22;14792;50.886;6.468;2023-02-28T07:01:26;-1.80;99.90
27306;DHT22;14792;50.886;6.468;2023-02-28T07:04:27;-1.70;99.90
27306;DHT22;14792;50.886;6.468;2023-02-28T07:07:30;-1.70;99.90
27306;DHT22;14792;50.886;6.468;2023-02-28T07:10:32;-1.60;99.90
27306;DHT22;14792;50.886;6.468;2023-02-28T07:13:33;-1.60;99.90
27306;DHT22;14792;50.886;6.468;2023-02-28T07:16:35;-1.50;99.90
27306;DHT22;14792;50.886;6.468;2023-02-28T07:19:36;-1.40;99.90
27306;DHT22;14792;50.886;6.468;2023-02-28T07:22:38;-1.30;99.90
27306;DHT22;14792;50.886;6.468;2023-02-28T07:25:39;-1.10;99.90
27306;DHT22;14792;50.886;6.468;2023-02-28T07:28:41;-1.00;99.90
27306;DHT22;14792;50.886;6.468;2023-02-28T07:31:43;-0.80;99.90
27306;DHT22;14792;50.886;6.468;2023-02-28T07:34:44;-0.70;99.90
27306;DHT22;14792;50.886;6.468;2023-02-28T07:37:47;-0.60;99.90
27306;DHT22;14792;50.886;6.468;2023-02-28T07:40:48;-0.40;99.90
27306;DHT22;14792;50.886;6.468;2023-02-28T07:43:52;-0.30;99.90
27306;DHT22;14792;50.886;6.468;2023-02-28T07:46:51;-0.10;99.90
27306;DHT22;14792;50.886;6.468;2023-02-28T07:49:53;0.10;99.90
27306;DHT22;14792;50.886;6.468;2023-02-28T07:52:55;0.20;99.90
27306;DHT22;14792;50.886;6.468;2023-02-28T07:55:57;0.40;99.90
27306;DHT22;14792;50.886;6.468;2023-02-28T07:58:58;0.50;99.90
27306;DHT22;14792;50.886;6.468;2023-02-28T08:01:59;0.80;99.90
27306;DHT22;14792;50.886;6.468;2023-02-28T08:05:01;1.00;99.90
27306;DHT22;14792;50.886;6.468;2023-02-28T08:08:03;1.20;99.90
27306;DHT22;14792;50.886;6.468;2023-02-28T08:11:04;1.30;99.90
27306;DHT22;14792;50.886;6.468;2023-02-28T08:14:06;1.40;99.90
27306;DHT22;14792;50.886;6.468;2023-02-28T08:17:09;1.60;99.90
27306;DHT22;14792;50.886;6.468;2023-02-28T08:20:09;1.70;99.90
27306;DHT22;14792;50.886;6.468;2023-02-28T08:23:11;1.90;99.90
27306;DHT22;14792;50.886;6.468;2023-02-28T08:26:12;2.00;99.90
27306;DHT22;14792;50.886;6.468;2023-02-28T08:29:14;2.20;99.90
27306;DHT22;14792;50.886;6.468;2023-02-28T08:32:15;2.40;99.90
27306;DHT22;14792;50.886;6.468;2023-02-28T08:35:17;2.60;99.90
27306;DHT22;14792;50.886;6.468;2023-02-28T08:38:19;2.70;99.90
27306;DHT22;14792;50.886;6.468;2023-02-28T08:41:20;2.80;99.90
27306;DHT22;14792;50.886;6.468;2023-02-28T08:44:22;2.90;99.90
27306;DHT22;14792;50.886;6.468;2023-02-28T08:47:23;3.10;99.90
27306;DHT22;14792;50.886;6.468;2023-02-28T08:50:25;3.10;99.90
27306;DHT22;14792;50.886;6.468;2023-02-28T08:53:26;3.30;99.90
27306;DHT22;14792;50.886;6.468;2023-02-28T08:56:28;3.30;99.90
27306;DHT22;14792;50.886;6.468;2023-02-28T08:59:30;3.40;99.90
27306;DHT22;14792;50.886;6.468;2023-02-28T09:02:31;3.60;99.90
27306;DHT22;14792;50.886;6.468;2023-02-28T09:05:33;3.70;99.90
27306;DHT22;14792;50.886;6.468;2023-02-28T09:08:34;3.80;99.90
27306;DHT22;14792;50.886;6.468;2023-02-28T09:11:36;3.90;99.90
27306;DHT22;14792;50.886;6.468;2023-02-28T09:14:38;4.00;99.90
27306;DHT22;14792;50.886;6.468;2023-02-28T09:17:39;4.20;99.90
27306;DHT22;14792;50.886;6.468;2023-02-28T09:20:41;4.10;99.90
27306;DHT22;14792;50.886;6.468;2023-02-28T09:23:43;4.30;99.90
27306;DHT22;14792;50.886;6.468;2023-02-28T09:26:44;4.10;99.90
27306;DHT22;14792;50.886;6.468;2023-02-28T09:29:45;4.10;99.90
27306;DHT22;14792;50.886;6.468;2023-02-28T09:32:47;4.30;99.90
27306;DHT22;14792;50.886;6.468;2023-02-28T09:35:49;4.30;99.90
27306;DHT22;14792;50.886;6.468;2023-02-28T09:38:50;4.60;99.90
27306;DHT22;14792;50.886;6.468;2023-02-28T09:41:52;4.50;99.90
27306;DHT22;14792;50.886;6.468;2023-02-28T09:44:53;4.50;99.90
27306;DHT22;14792;50.886;6.468;2023-02-28T09:47:56;4.70;99.90
27306;DHT22;14792;50.886;6.468;2023-02-28T09:51:04;4.70;99.90
27306;DHT22;14792;50.886;6.468;2023-02-28T09:54:01;4.70;99.90
27306;DHT22;14792;50.886;6.468;2023-02-28T09:57:07;4.60;99.00
27306;DHT22;14792;50.886;6.468;2023-02-28T10:03:25;4.60;99.40
27306;DHT22;14792;50.886;6.468;2023-02-28T10:06:28;4.60;99.00
27306;DHT22;14792;50.886;6.468;2023-02-28T10:09:31;5.10;99.90
27306;DHT22;14792;50.886;6.468;2023-02-28T10:12:33;5.40;99.50
27306;DHT22;14792;50.886;6.468;2023-02-28T10:15:35;5.20;98.20
27306;DHT22;14792;50.886;6.468;2023-02-28T10:19:01;5.20;97.00
27306;DHT22;14792;50.886;6.468;2023-02-28T10:22:08;5.40;98.60
27306;DHT22;14792;50.886;6.468;2023-02-28T10:25:17;5.70;97.00
27306;DHT22;14792;50.886;6.468;2023-02-28T10:28:14;5.70;97.40
27306;DHT22;14792;50.886;6.468;2023-02-28T10:31:15;5.70;96.20
27306;DHT22;14792;50.886;6.468;2023-02-28T10:34:16;5.70;97.40
27306;DHT22;14792;50.886;6.468;2023-02-28T10:37:18;5.70;97.00
27306;DHT22;14792;50.886;6.468;2023-02-28T10:43:21;5.80;96.20
27306;DHT22;14792;50.886;6.468;2023-02-28T10:46:22;6.00;95.90
27306;DHT22;14792;50.886;6.468;2023-02-28T10:49:27;6.00;95.80
27306;DHT22;14792;50.886;6.468;2023-02-28T10:52:40;6.10;95.80
27306;DHT22;14792;50.886;6.468;2023-02-28T10:55:42;6.30;95.30
27306;DHT22;14792;50.886;6.468;2023-02-28T10:58:59;6.50;95.50
27306;DHT22;14792;50.886;6.468;2023-02-28T11:01:59;6.30;94.20
27306;DHT22;14792;50.886;6.468;2023-02-28T11:05:01;6.30;94.20
27306;DHT22;14792;50.886;6.468;2023-02-28T11:11:07;6.70;95.10
27306;DHT22;14792;50.886;6.468;2023-02-28T11:14:17;7.10;95.30
27306;DHT22;14792;50.886;6.468;2023-02-28T11:17:14;6.90;93.20
27306;DHT22;14792;50.886;6.468;2023-02-28T11:20:18;6.80;93.40
27306;DHT22;14792;50.886;6.468;2023-02-28T11:23:16;6.60;93.00
27306;DHT22;14792;50.886;6.468;2023-02-28T11:26:35;6.70;94.50
27306;DHT22;14792;50.886;6.468;2023-02-28T11:29:21;6.50;92.90
27306;DHT22;14792;50.886;6.468;2023-02-28T11:32:21;7.20;94.20
27306;DHT22;14792;50.886;6.468;2023-02-28T11:35:27;6.90;92.40
27306;DHT22;14792;50.886;6.468;2023-02-28T11:38:27;6.90;93.90
27306;DHT22;14792;50.886;6.468;2023-02-28T11:41:36;7.10;92.50
27306;DHT22;14792;50.886;6.468;2023-02-28T11:47:59;7.20;91.60
27306;DHT22;14792;50.886;6.468;2023-02-28T11:51:08;7.50;92.90
27306;DHT22;14792;50.886;6.468;2023-02-28T11:54:11;6.90;92.30
27306;DHT22;14792;50.886;6.468;2023-02-28T11:57:40;6.40;92.40
27306;DHT22;14792;50.886;6.468;2023-02-28T12:00:53;6.60;93.30
27306;DHT22;14792;50.886;6.468;2023-02-28T12:04:14;6.70;92.90
27306;DHT22;14792;50.886;6.468;2023-02-28T12:07:17;6.90;92.20
27306;DHT22;14792;50.886;6.468;2023-02-28T12:10:21;7.20;92.10
27306;DHT22;14792;50.886;6.468;2023-02-28T12:13:26;7.40;92.60
27306;DHT22;14792;50.886;6.468;2023-02-28T12:20:17;7.80;92.00
27306;DHT22;14792;50.886;6.468;2023-02-28T12:26:41;8.00;91.40
27306;DHT22;14792;50.886;6.468;2023-02-28T12:33:06;8.10;91.40
27306;DHT22;14792;50.886;6.468;2023-02-28T12:36:09;7.80;90.90
27306;DHT22;14792;50.886;6.468;2023-02-28T12:39:11;8.00;91.30
27306;DHT22;14792;50.886;6.468;2023-02-28T12:42:16;8.40;91.80
27306;DHT22;14792;50.886;6.468;2023-02-28T12:48:25;8.20;91.50
27306;DHT22;14792;50.886;6.468;2023-02-28T12:51:22;8.00;90.90
27306;DHT22;14792;50.886;6.468;2023-02-28T12:54:37;7.90;91.40
27306;DHT22;14792;50.886;6.468;2023-02-28T12:58:01;7.80;91.40
27306;DHT22;14792;50.886;6.468;2023-02-28T13:01:11;7.80;92.50
27306;DHT22;14792;50.886;6.468;2023-02-28T13:10:43;8.30;93.00
27306;DHT22;14792;50.886;6.468;2023-02-28T13:13:44;8.40;91.90
27306;DHT22;14792;50.886;6.468;2023-02-28T13:20:21;8.00;92.40
27306;DHT22;14792;50.886;6.468;2023-02-28T13:29:38;7.70;91.80
27306;DHT22;14792;50.886;6.468;2023-02-28T13:32:37;7.90;92.50
27306;DHT22;14792;50.886;6.468;2023-02-28T13:35:43;7.90;92.10
27306;DHT22;14792;50.886;6.468;2023-02-28T13:38:46;8.40;91.60
27306;DHT22;14792;50.886;6.468;2023-02-28T13:41:47;8.30;91.00
27306;DHT22;14792;50.886;6.468;2023-02-28T13:48:15;8.40;92.00
27306;DHT22;14792;50.886;6.468;2023-02-28T13:54:44;8.50;90.70
27306;DHT22;14792;50.886;6.468;2023-02-28T13:58:06;8.70;91.10
27306;DHT22;14792;50.886;6.468;2023-02-28T14:01:15;9.10;90.00
27306;DHT22;14792;50.886;6.468;2023-02-28T14:04:41;8.90;89.30
27306;DHT22;14792;50.886;6.468;2023-02-28T14:07:44;8.80;88.90
27306;DHT22;14792;50.886;6.468;2023-02-28T14:10:50;8.60;90.30
27306;DHT22;14792;50.886;6.468;2023-02-28T14:13:51;8.50;90.80
27306;DHT22;14792;50.886;6.468;2023-02-28T14:16:52;8.50;90.20
27306;DHT22;14792;50.886;6.468;2023-02-28T14:19:54;8.70;91.30
27306;DHT22;14792;50.886;6.468;2023-02-28T14:23:12;8.80;90.20
27306;DHT22;14792;50.886;6.468;2023-02-28T14:26:30;9.00;90.10
27306;DHT22;14792;50.886;6.468;2023-02-28T14:32:53;9.30;88.20
27306;DHT22;14792;50.886;6.468;2023-02-28T14:39:24;8.70;88.70
27306;DHT22;14792;50.886;6.468;2023-02-28T14:42:32;8.90;90.30
27306;DHT22;14792;50.886;6.468;2023-02-28T14:45:33;8.70;89.40
27306;DHT22;14792;50.886;6.468;2023-02-28T14:48:34;8.40;90.00
27306;DHT22;14792;50.886;6.468;2023-02-28T14:51:35;8.50;91.40
27306;DHT22;14792;50.886;6.468;2023-02-28T14:54:37;8.70;90.60
27306;DHT22;14792;50.886;6.468;2023-02-28T14:57:42;9.10;90.00
27306;DHT22;14792;50.886;6.468;2023-02-28T15:00:49;8.80;90.00
27306;DHT22;14792;50.886;6.468;2023-02-28T15:04:03;9.20;90.00
27306;DHT22;14792;50.886;6.468;2023-02-28T15:07:10;9.20;90.00
27306;DHT22;14792;50.886;6.468;2023-02-28T15:13:16;8.50;88.30
27306;DHT22;14792;50.886;6.468;2023-02-28T15:16:19;8.30;89.50
27306;DHT22;14792;50.886;6.468;2023-02-28T15:19:26;8.40;89.00
27306;DHT22;14792;50.886;6.468;2023-02-28T15:22:31;8.20;88.90
27306;DHT22;14792;50.886;6.468;2023-02-28T15:25:31;8.30;89.70
27306;DHT22;14792;50.886;6.468;2023-02-28T15:28:32;8.60;89.80
27306;DHT22;14792;50.886;6.468;2023-02-28T15:31:35;8.50;90.00
27306;DHT22;14792;50.886;6.468;2023-02-28T15:34:39;8.50;88.30
27306;DHT22;14792;50.886;6.468;2023-02-28T15:37:45;8.50;88.20
27306;DHT22;14792;50.886;6.468;2023-02-28T15:40:43;8.50;89.30
27306;DHT22;14792;50.886;6.468;2023-02-28T15:43:43;8.50;89.30
27306;DHT22;14792;50.886;6.468;2023-02-28T15:46:53;8.30;90.50
27306;DHT22;14792;50.886;6.468;2023-02-28T15:52:53;8.30;89.80
27306;DHT22;14792;50.886;6.468;2023-02-28T15:55:58;8.30;90.00
27306;DHT22;14792;50.886;6.468;2023-02-28T15:58:57;8.30;89.80
27306;DHT22;14792;50.886;6.468;2023-02-28T16:08:14;7.70;90.20
27306;DHT22;14792;50.886;6.468;2023-02-28T16:11:15;7.80;91.00
27306;DHT22;14792;50.886;6.468;2023-02-28T16:14:26;7.70;90.80
27306;DHT22;14792;50.886;6.468;2023-02-28T16:17:28;7.60;91.00
27306;DHT22;14792;50.886;6.468;2023-02-28T16:20:29;7.40;91.50
27306;DHT22;14792;50.886;6.468;2023-02-28T16:23:30;7.40;91.80
27306;DHT22;14792;50.886;6.468;2023-02-28T16:26:31;7.40;91.50
27306;DHT22;14792;50.886;6.468;2023-02-28T16:29:35;7.20;92.30
27306;DHT22;14792;50.886;6.468;2023-02-28T16:32:37;7.20;92.10
27306;DHT22;14792;50.886;6.468;2023-02-28T16:35:39;7.10;92.10
27306;DHT22;14792;50.886;6.468;2023-02-28T16:38:40;7.00;92.40
27306;DHT22;14792;50.886;6.468;2023-02-28T16:41:43;6.70;92.20
27306;DHT22;14792;50.886;6.468;2023-02-28T16:44:43;6.40;92.90
27306;DHT22;14792;50.886;6.468;2023-02-28T16:47:45;6.30;92.80
27306;DHT22;14792;50.886;6.468;2023-02-28T16:50:47;6.00;93.00
27306;DHT22;14792;50.886;6.468;2023-02-28T16:53:48;5.90;93.10
27306;DHT22;14792;50.886;6.468;2023-02-28T16:56:50;5.80;93.10
27306;DHT22;14792;50.886;6.468;2023-02-28T16:59:51;5.70;93.40
27306;DHT22;14792;50.886;6.468;2023-02-28T17:02:53;5.60;93.90
27306;DHT22;14792;50.886;6.468;2023-02-28T17:05:55;5.50;93.80
27306;DHT22;14792;50.886;6.468;2023-02-28T17:08:57;5.30;93.60
27306;DHT22;14792;50.886;6.468;2023-02-28T17:11:58;5.30;94.10
27306;DHT22;14792;50.886;6.468;2023-02-28T17:14:59;5.20;94.30
27306;DHT22;14792;50.886;6.468;2023-02-28T17:18:01;5.10;94.40
27306;DHT22;14792;50.886;6.468;2023-02-28T17:21:02;4.90;94.80
27306;DHT22;14792;50.886;6.468;2023-02-28T17:24:04;4.80;95.10
27306;DHT22;14792;50.886;6.468;2023-02-28T17:27:06;4.80;95.50
27306;DHT22;14792;50.886;6.468;2023-02-28T17:30:34;4.80;95.60
27306;DHT22;14792;50.886;6.468;2023-02-28T17:33:15;4.70;95.90
27306;DHT22;14792;50.886;6.468;2023-02-28T17:36:24;4.60;95.80
27306;DHT22;14792;50.886;6.468;2023-02-28T17:39:21;4.40;96.90
27306;DHT22;14792;50.886;6.468;2023-02-28T17:42:25;4.30;97.90
27306;DHT22;14792;50.886;6.468;2023-02-28T17:45:27;4.20;98.30
27306;DHT22;14792;50.886;6.468;2023-02-28T17:48:28;4.10;98.90
27306;DHT22;14792;50.886;6.468;2023-02-28T17:51:30;4.10;99.40
27306;DHT22;14792;50.886;6.468;2023-02-28T17:54:32;4.00;99.90
27306;DHT22;14792;50.886;6.468;2023-02-28T17:57:33;3.90;99.90
27306;DHT22;14792;50.886;6.468;2023-02-28T18:00:35;3.80;99.90
27306;DHT22;14792;50.886;6.468;2023-02-28T18:03:37;3.60;99.90
27306;DHT22;14792;50.886;6.468;2023-02-28T18:06:39;3.50;99.90
27306;DHT22;14792;50.886;6.468;2023-02-28T18:09:48;3.40;99.90
27306;DHT22;14792;50.886;6.468;2023-02-28T18:12:50;3.20;99.90
27306;DHT22;14792;50.886;6.468;2023-02-28T18:15:51;3.10;99.90
27306;DHT22;14792;50.886;6.468;2023-02-28T18:18:53;3.10;99.90
27306;DHT22;14792;50.886;6.468;2023-02-28T18:21:55;3.00;99.90
27306;DHT22;14792;50.886;6.468;2023-02-28T18:24:56;2.90;99.90
27306;DHT22;14792;50.886;6.468;2023-02-28T18:27:58;2.70;99.90
27306;DHT22;14792;50.886;6.468;2023-02-28T18:31:08;2.70;99.90
27306;DHT22;14792;50.886;6.468;2023-02-28T18:34:10;2.70;99.90
27306;DHT22;14792;50.886;6.468;2023-02-28T18:37:11;2.60;99.90
27306;DHT22;14792;50.886;6.468;2023-02-28T18:40:13;2.60;99.90
27306;DHT22;14792;50.886;6.468;2023-02-28T18:43:14;2.70;99.90
27306;DHT22;14792;50.886;6.468;2023-02-28T18:46:17;2.70;99.90
27306;DHT22;14792;50.886;6.468;2023-02-28T18:49:18;2.70;99.90
27306;DHT22;14792;50.886;6.468;2023-02-28T18:52:19;2.70;99.90
27306;DHT22;14792;50.886;6.468;2023-02-28T18:55:21;2.80;99.90
27306;DHT22;14792;50.886;6.468;2023-02-28T18:58:22;2.80;99.90
27306;DHT22;14792;50.886;6.468;2023-02-28T19:01:25;2.70;99.90
27306;DHT22;14792;50.886;6.468;2023-02-28T19:04:28;2.70;99.90
27306;DHT22;14792;50.886;6.468;2023-02-28T19:07:30;2.80;99.90
27306;DHT22;14792;50.886;6.468;2023-02-28T19:10:32;2.70;99.90
27306;DHT22;14792;50.886;6.468;2023-02-28T19:13:33;2.70;99.90
27306;DHT22;14792;50.886;6.468;2023-02-28T19:16:35;2.70;99.90
27306;DHT22;14792;50.886;6.468;2023-02-28T19:19:36;2.70;99.90
27306;DHT22;14792;50.886;6.468;2023-02-28T19:22:38;2.70;99.90
27306;DHT22;14792;50.886;6.468;2023-02-28T19:25:40;2.70;99.90
27306;DHT22;14792;50.886;6.468;2023-02-28T19:28:41;2.70;99.90
27306;DHT22;14792;50.886;6.468;2023-02-28T19:31:43;2.70;99.90
27306;DHT22;14792;50.886;6.468;2023-02-28T19:34:45;2.70;99.90
27306;DHT22;14792;50.886;6.468;2023-02-28T19:37:46;2.60;99.90
27306;DHT22;14792;50.886;6.468;2023-02-28T19:40:47;2.50;99.90
27306;DHT22;14792;50.886;6.468;2023-02-28T19:43:51;2.50;99.90
27306;DHT22;14792;50.886;6.468;2023-02-28T19:46:51;2.40;99.90
27306;DHT22;14792;50.886;6.468;2023-02-28T19:49:52;2.30;99.90
27306;DHT22;14792;50.886;6.468;2023-02-28T19:52:54;2.20;99.90
27306;DHT22;14792;50.886;6.468;2023-02-28T19:55:55;2.20;99.90
27306;DHT22;14792;50.886;6.468;2023-02-28T19:58:57;2.20;99.90
27306;DHT22;14792;50.886;6.468;2023-02-28T20:01:59;2.20;99.90
27306;DHT22;14792;50.886;6.468;2023-02-28T20:05:00;2.10;99.90
27306;DHT22;14792;50.886;6.468;2023-02-28T20:08:02;2.10;99.90
27306;DHT22;14792;50.886;6.468;2023-02-28T20:11:07;2.00;99.90
27306;DHT22;14792;50.886;6.468;2023-02-28T20:14:05;2.00;99.90
27306;DHT22;14792;50.886;6.468;2023-02-28T20:17:06;1.80;99.90
27306;DHT22;14792;50.886;6.468;2023-02-28T20:20:08;1.80;99.90
27306;DHT22;14792;50.886;6.468;2023-02-28T20:23:10;1.70;99.90
27306;DHT22;14792;50.886;6.468;2023-02-28T20:26:11;1.60;99.90
27306;DHT22;14792;50.886;6.468;2023-02-28T20:29:13;1.60;99.90
27306;DHT22;14792;50.886;6.468;2023-02-28T20:32:14;1.60;99.90
27306;DHT22;14792;50.886;6.468;2023-02-28T20:35:16;1.60;99.90
27306;DHT22;14792;50.886;6.468;2023-02-28T20:38:18;1.50;99.90
27306;DHT22;14792;50.886;6.468;2023-02-28T20:41:20;1.50;99.90
27306;DHT22;14792;50.886;6.468;2023-02-28T20:44:21;1.50;99.90
27306;DHT22;14792;50.886;6.468;2023-02-28T20:47:22;1.40;99.90
27306;DHT22;14792;50.886;6.468;2023-02-28T20:50:24;1.40;99.90
27306;DHT22;14792;50.886;6.468;2023-02-28T20:53:26;1.30;99.90
27306;DHT22;14792;50.886;6.468;2023-02-28T20:56:27;1.20;99.90
27306;DHT22;14792;50.886;6.468;2023-02-28T20:59:29;1.10;99.90